Time;durP1;ratioP1;P1;durP2;ratioP2;P2;SDS_P1;SDS_P2;PMS_P1;PMS_P2;Temp;Humidity;BMP_temperature;BMP_pressure;BME280_temperature;BME280_humidity;BME280_pressure;Samples;Min_cycle;Max_cycle;Signal;HPM_P1;HPM_P2
2022/10/11 00:02:05;;;;;;;1999.90;999.90;;;14.50;99.90;;;;;;5054580;28;20467;-70
2022/10/11 00:04:32;;;;;;;1999.90;999.90;;;14.40;99.90;;;;;;5070576;28;20447;-70
2022/10/11 00:06:59;;;;;;;1999.90;999.90;;;14.40;99.90;;;;;;5070519;28;20447;-70
2022/10/11 00:09:27;;;;;;;1999.90;999.90;;;14.40;99.90;;;;;;5070976;28;20442;-70
2022/10/11 00:11:55;;;;;;;1999.90;999.90;;;14.30;99.90;;;;;;5070498;28;20450;-70
2022/10/11 00:14:22;;;;;;;1999.90;999.90;;;14.30;99.90;;;;;;5070308;28;21142;-70
2022/10/11 00:16:49;;;;;;;1999.90;999.90;;;14.20;99.90;;;;;;5070460;28;20493;-70
2022/10/11 00:19:16;;;;;;;1999.90;999.90;;;14.20;99.90;;;;;;5070602;28;20449;-70
2022/10/11 00:21:43;;;;;;;1999.90;999.90;;;14.10;99.90;;;;;;5051923;28;20454;-70
2022/10/11 00:24:10;;;;;;;1999.90;999.90;;;14.20;99.90;;;;;;5051419;28;20444;-70
2022/10/11 00:26:39;;;;;;;1999.90;999.90;;;14.10;99.90;;;;;;5051454;28;20459;-70
2022/10/11 00:29:05;;;;;;;1999.90;999.90;;;14.10;99.90;;;;;;5051481;28;20448;-70
2022/10/11 00:31:32;;;;;;;1999.90;999.90;;;14.00;99.90;;;;;;5051111;28;20450;-71
2022/10/11 00:33:59;;;;;;;1999.90;999.90;;;14.00;99.90;;;;;;5068570;28;20443;-70
2022/10/11 00:36:26;;;;;;;1999.90;999.90;;;13.90;99.90;;;;;;5071171;28;20483;-71
2022/10/11 00:38:53;;;;;;;1999.90;999.90;;;13.90;99.90;;;;;;5071113;28;20450;-71
2022/10/11 00:41:20;;;;;;;1999.90;999.90;;;14.00;99.90;;;;;;5070810;28;20443;-71
2022/10/11 00:43:48;;;;;;;1999.90;999.90;;;13.90;99.90;;;;;;5070990;28;20439;-70
2022/10/11 00:46:30;;;;;;;1999.90;999.90;;;13.80;99.90;;;;;;5071065;28;20474;-70
2022/10/11 00:49:02;;;;;;;1999.90;999.90;;;13.70;99.90;;;;;;5070983;28;20442;-70
2022/10/11 00:51:43;;;;;;;1999.90;999.90;;;13.70;99.90;;;;;;5070804;28;20447;-70
2022/10/11 00:54:14;;;;;;;1999.90;999.90;;;13.60;99.90;;;;;;5070782;28;20442;-70
2022/10/11 00:56:43;;;;;;;1999.90;999.90;;;13.50;99.90;;;;;;5071022;28;20479;-70
2022/10/11 00:59:18;;;;;;;1999.90;999.90;;;13.50;99.90;;;;;;5070855;28;20443;-70
2022/10/11 01:01:45;;;;;;;1999.90;999.90;;;13.50;99.90;;;;;;5070535;28;20510;-70
2022/10/11 01:04:12;;;;;;;1999.90;999.90;;;13.40;99.90;;;;;;5070613;28;20447;-70
2022/10/11 01:06:40;;;;;;;1999.90;999.90;;;13.40;99.90;;;;;;5070425;28;20464;-70
2022/10/11 01:09:07;;;;;;;1999.90;999.90;;;13.40;99.90;;;;;;5070716;28;20451;-70
2022/10/11 01:11:37;;;;;;;1999.90;999.90;;;13.30;99.90;;;;;;5070151;28;20455;-70
2022/10/11 01:14:25;;;;;;;1999.90;999.90;;;13.30;99.90;;;;;;5070392;28;20450;-70
2022/10/11 01:16:57;;;;;;;1999.90;999.90;;;13.30;99.90;;;;;;5069997;28;20475;-70
2022/10/11 01:19:44;;;;;;;1999.90;999.90;;;13.30;99.90;;;;;;5070553;28;20483;-70
2022/10/11 01:22:29;;;;;;;1999.90;999.90;;;13.30;99.90;;;;;;5069981;28;20964;-70
2022/10/11 01:25:14;;;;;;;1999.90;999.90;;;13.30;99.90;;;;;;5070402;28;20447;-70
2022/10/11 01:27:53;;;;;;;1999.90;999.90;;;13.20;99.90;;;;;;5069777;28;20822;-70
2022/10/11 01:30:27;;;;;;;1999.90;999.90;;;13.20;99.90;;;;;;5070343;28;20451;-70
2022/10/11 01:33:06;;;;;;;1999.90;999.90;;;13.10;99.90;;;;;;5069570;28;20461;-70
2022/10/11 01:35:39;;;;;;;1999.90;999.90;;;13.10;99.90;;;;;;5069693;28;20980;-70
2022/10/11 01:38:10;;;;;;;1999.90;999.90;;;13.10;99.90;;;;;;5067929;28;20463;-70
2022/10/11 01:40:41;;;;;;;1999.90;999.90;;;13.00;99.90;;;;;;5069545;28;20952;-70
2022/10/11 01:43:10;;;;;;;1999.90;999.90;;;13.00;99.90;;;;;;5065250;28;20816;-70
2022/10/11 01:45:40;;;;;;;1999.90;999.90;;;13.10;99.90;;;;;;5069792;28;20459;-70
2022/10/11 01:48:09;;;;;;;1999.90;999.90;;;13.10;99.90;;;;;;5069570;28;20443;-70
2022/10/11 01:50:40;;;;;;;1999.90;999.90;;;13.10;99.90;;;;;;5070161;28;20458;-71
2022/10/11 01:53:20;;;;;;;1999.90;999.90;;;13.20;99.90;;;;;;5068263;28;20440;-70
2022/10/11 01:55:54;;;;;;;1999.90;999.90;;;13.30;99.90;;;;;;5061407;28;20467;-70
2022/10/11 01:58:35;;;;;;;1999.90;999.90;;;13.40;99.90;;;;;;5062490;28;20470;-70
2022/10/11 02:01:14;;;;;;;1999.90;999.90;;;13.50;99.90;;;;;;5069152;28;20446;-70
2022/10/11 02:03:48;;;;;;;1999.90;999.90;;;13.60;99.90;;;;;;5069581;28;20435;-70
2022/10/11 02:06:22;;;;;;;1999.90;999.90;;;13.60;99.90;;;;;;5083800;28;20461;-70
2022/10/11 02:08:55;;;;;;;1999.90;999.90;;;13.60;99.90;;;;;;5089689;28;20438;-70
2022/10/11 02:11:25;;;;;;;1999.90;999.90;;;13.70;99.90;;;;;;5088348;28;20445;-70
2022/10/11 02:13:56;;;;;;;1999.90;999.90;;;13.70;99.90;;;;;;5069417;28;20985;-70
2022/10/11 02:16:31;;;;;;;1999.90;999.90;;;13.80;99.90;;;;;;5069465;28;20489;-70
2022/10/11 02:19:01;;;;;;;1999.90;999.90;;;13.70;99.90;;;;;;5069467;28;20970;-70
2022/10/11 02:21:29;;;;;;;1999.90;999.90;;;13.70;99.90;;;;;;5069287;28;20823;-70
2022/10/11 02:24:00;;;;;;;1999.90;999.90;;;13.60;99.90;;;;;;5069722;28;20454;-70
2022/10/11 02:26:30;;;;;;;1999.90;999.90;;;13.50;99.90;;;;;;5069419;28;20463;-70
2022/10/11 02:29:01;;;;;;;1999.90;999.90;;;13.60;99.90;;;;;;5069628;28;20454;-70
2022/10/11 02:31:33;;;;;;;1999.90;999.90;;;13.60;99.90;;;;;;5069130;28;20442;-70
2022/10/11 02:34:06;;;;;;;1999.90;999.90;;;13.60;99.90;;;;;;5069282;28;20442;-71
2022/10/11 02:36:42;;;;;;;1999.90;999.90;;;13.60;99.90;;;;;;5069279;28;20490;-70
2022/10/11 02:39:15;;;;;;;1999.90;999.90;;;13.60;99.90;;;;;;5073595;28;20468;-70
2022/10/11 02:41:42;;;;;;;1999.90;999.90;;;13.70;99.90;;;;;;5073246;28;20443;-71
2022/10/11 02:44:13;;;;;;;1999.90;999.90;;;13.70;99.90;;;;;;5073387;28;20865;-70
2022/10/11 02:46:43;;;;;;;1999.90;999.90;;;13.70;99.90;;;;;;5073187;28;20454;-71
2022/10/11 02:49:11;;;;;;;1999.90;999.90;;;13.70;99.90;;;;;;5073929;28;20431;-70
2022/10/11 02:51:39;;;;;;;1999.90;999.90;;;13.80;99.90;;;;;;5073222;28;20471;-70
2022/10/11 02:54:06;;;;;;;1999.90;999.90;;;13.80;99.90;;;;;;5073478;28;20439;-70
2022/10/11 02:56:33;;;;;;;1999.90;999.90;;;13.90;99.90;;;;;;5073035;28;21000;-70
2022/10/11 02:58:59;;;;;;;1999.90;999.90;;;13.90;99.90;;;;;;5073291;28;20443;-70
2022/10/11 03:01:26;;;;;;;1999.90;999.90;;;13.90;99.90;;;;;;5073084;28;20443;-70
2022/10/11 03:03:54;;;;;;;1999.90;999.90;;;14.00;99.90;;;;;;5072953;28;20974;-70
2022/10/11 03:06:21;;;;;;;1999.90;999.90;;;14.00;99.90;;;;;;5069373;28;20475;-70
2022/10/11 03:08:48;;;;;;;1999.90;999.90;;;14.00;99.90;;;;;;5072145;28;20948;-70
2022/10/11 03:11:14;;;;;;;1999.90;999.90;;;14.00;99.90;;;;;;5071982;28;20450;-71
2022/10/11 03:13:41;;;;;;;1999.90;999.90;;;14.00;99.90;;;;;;5071847;28;20442;-70
2022/10/11 03:16:08;;;;;;;1999.90;999.90;;;14.10;99.90;;;;;;5072119;28;20478;-70
2022/10/11 03:18:34;;;;;;;1999.90;999.90;;;14.10;99.90;;;;;;5072021;28;20483;-70
2022/10/11 03:21:03;;;;;;;1999.90;999.90;;;14.10;99.90;;;;;;5068771;28;20470;-70
2022/10/11 03:23:29;;;;;;;1999.90;999.90;;;14.10;99.90;;;;;;5067247;28;20446;-70
2022/10/11 03:25:56;;;;;;;1999.90;999.90;;;14.10;99.90;;;;;;5072398;28;20459;-71
2022/10/11 03:28:23;;;;;;;1999.90;999.90;;;14.10;99.90;;;;;;5072201;28;20451;-71
2022/10/11 03:30:51;;;;;;;1999.90;999.90;;;14.10;99.90;;;;;;5070633;28;20451;-71
2022/10/11 03:33:18;;;;;;;1999.90;999.90;;;14.10;99.90;;;;;;5072173;28;20475;-71
2022/10/11 03:35:45;;;;;;;1999.90;999.90;;;14.10;99.90;;;;;;5072208;28;20477;-71
2022/10/11 03:38:15;;;;;;;1999.90;999.90;;;14.10;99.90;;;;;;5072499;28;20502;-71
2022/10/11 03:40:43;;;;;;;1999.90;999.90;;;14.20;99.90;;;;;;5072005;28;20941;-71
2022/10/11 03:43:10;;;;;;;1999.90;999.90;;;14.10;99.90;;;;;;5072406;28;20447;-71
2022/10/11 03:45:37;;;;;;;1999.90;999.90;;;14.10;99.90;;;;;;5072282;28;20463;-71
2022/10/11 03:48:04;;;;;;;1999.90;999.90;;;14.10;99.90;;;;;;5072404;28;20439;-70
2022/10/11 03:50:31;;;;;;;1999.90;999.90;;;14.10;99.90;;;;;;5071494;28;20932;-70
2022/10/11 03:52:58;;;;;;;1999.90;999.90;;;14.10;99.90;;;;;;5071886;28;20447;-70
2022/10/11 03:55:26;;;;;;;1999.90;999.90;;;14.10;99.90;;;;;;5072177;28;20477;-70
2022/10/11 03:57:53;;;;;;;1999.90;999.90;;;14.10;99.90;;;;;;5072194;28;20487;-70
2022/10/11 04:00:20;;;;;;;1999.90;999.90;;;14.20;99.90;;;;;;5071852;28;21116;-70
2022/10/11 04:02:47;;;;;;;1999.90;999.90;;;14.20;99.90;;;;;;5071745;28;20963;-70
2022/10/11 04:05:14;;;;;;;1999.90;999.90;;;14.20;99.90;;;;;;5072015;28;20976;-70
2022/10/11 04:07:41;;;;;;;1999.90;999.90;;;14.20;99.90;;;;;;5071737;28;20450;-70
2022/10/11 04:10:08;;;;;;;1999.90;999.90;;;14.10;99.90;;;;;;5072145;28;20447;-70
2022/10/11 04:12:37;;;;;;;1999.90;999.90;;;14.10;99.90;;;;;;5071534;28;20443;-70
2022/10/11 04:15:05;;;;;;;1999.90;999.90;;;14.10;99.90;;;;;;5071939;28;20460;-70
2022/10/11 04:17:33;;;;;;;1999.90;999.90;;;13.90;99.90;;;;;;5071577;28;20564;-70
2022/10/11 04:20:00;;;;;;;1999.90;999.90;;;13.90;99.90;;;;;;5071839;28;20439;-70
2022/10/11 04:22:26;;;;;;;1999.90;999.90;;;13.90;99.90;;;;;;5071845;28;20786;-68
2022/10/11 04:24:53;;;;;;;1999.90;999.90;;;13.80;99.90;;;;;;5071836;28;20447;-70
2022/10/11 04:27:20;;;;;;;1999.90;999.90;;;13.80;99.90;;;;;;5071582;28;20470;-69
2022/10/11 04:29:48;;;;;;;1999.90;999.90;;;13.80;99.90;;;;;;5071751;28;20443;-69
2022/10/11 04:32:15;;;;;;;1999.90;999.90;;;13.90;99.90;;;;;;5071282;28;20539;-70
2022/10/11 04:34:42;;;;;;;1999.90;999.90;;;13.90;99.90;;;;;;5071432;28;20499;-69
2022/10/11 04:37:08;;;;;;;1999.90;999.90;;;13.90;99.90;;;;;;5071635;28;20483;-69
2022/10/11 04:39:35;;;;;;;1999.90;999.90;;;13.90;99.90;;;;;;5071620;28;20447;-69
2022/10/11 04:42:02;;;;;;;1999.90;999.90;;;14.00;99.90;;;;;;5071167;28;20525;-69
2022/10/11 04:44:29;;;;;;;1999.90;999.90;;;14.00;99.90;;;;;;5071244;28;20451;-69
2022/10/11 04:46:57;;;;;;;1999.90;999.90;;;14.00;99.90;;;;;;5071310;28;20549;-70
2022/10/11 04:49:24;;;;;;;1999.90;999.90;;;14.00;99.90;;;;;;5070917;28;20431;-70
2022/10/11 04:51:51;;;;;;;1999.90;999.90;;;14.00;99.90;;;;;;5070901;28;20438;-71
2022/10/11 04:54:18;;;;;;;1999.90;999.90;;;14.00;99.90;;;;;;5071256;28;20443;-70
2022/10/11 04:56:45;;;;;;;1999.90;999.90;;;14.00;99.90;;;;;;5071114;28;20465;-70
2022/10/11 04:59:11;;;;;;;1999.90;999.90;;;14.00;99.90;;;;;;5070977;28;20475;-71
2022/10/11 05:01:38;;;;;;;1999.90;999.90;;;14.10;99.90;;;;;;5069590;28;20439;-70
2022/10/11 05:04:07;;;;;;;1999.90;999.90;;;14.10;99.90;;;;;;5059267;28;20447;-69
2022/10/11 05:06:34;;;;;;;1999.90;999.90;;;14.10;99.90;;;;;;5053856;28;20478;-69
2022/10/11 05:09:00;;;;;;;1999.90;999.90;;;14.00;99.90;;;;;;5058797;28;20450;-69
2022/10/11 05:11:27;;;;;;;1999.90;999.90;;;13.90;99.90;;;;;;5054721;28;20454;-69
2022/10/11 05:13:55;;;;;;;1999.90;999.90;;;13.90;99.90;;;;;;5060990;28;20439;-68
2022/10/11 05:16:22;;;;;;;1999.90;999.90;;;13.90;99.90;;;;;;5066346;28;20471;-68
2022/10/11 05:18:49;;;;;;;1999.90;999.90;;;13.80;99.90;;;;;;5068493;28;21004;-68
2022/10/11 05:21:19;;;;;;;1999.90;999.90;;;13.80;99.90;;;;;;5068907;28;20443;-68
2022/10/11 05:23:47;;;;;;;1999.90;999.90;;;13.80;99.90;;;;;;5070171;28;20443;-69
2022/10/11 05:26:14;;;;;;;1999.90;999.90;;;13.80;99.90;;;;;;5070442;28;20463;-68
2022/10/11 05:28:41;;;;;;;1999.90;999.90;;;13.90;99.90;;;;;;5069397;28;20446;-69
2022/10/11 05:31:08;;;;;;;1999.90;999.90;;;13.90;99.90;;;;;;5064961;28;20960;-68
2022/10/11 05:33:35;;;;;;;1999.90;999.90;;;13.80;99.90;;;;;;5069429;28;20447;-68
2022/10/11 05:36:01;;;;;;;1999.90;999.90;;;13.80;99.90;;;;;;5069546;28;20470;-68
2022/10/11 05:38:30;;;;;;;1999.90;999.90;;;13.80;99.90;;;;;;5068429;28;20500;-67
2022/10/11 05:40:59;;;;;;;1999.90;999.90;;;13.80;99.90;;;;;;5048968;28;20451;-68
2022/10/11 05:43:26;;;;;;;1999.90;999.90;;;13.80;99.90;;;;;;5051613;28;20444;-67
2022/10/11 05:45:52;;;;;;;1999.90;999.90;;;13.80;99.90;;;;;;5068277;28;20463;-68
2022/10/11 05:48:19;;;;;;;1999.90;999.90;;;13.80;99.90;;;;;;5062910;28;20447;-68
2022/10/11 05:50:46;;;;;;;1999.90;999.90;;;13.80;99.90;;;;;;5069534;28;20952;-69
2022/10/11 05:53:13;;;;;;;1999.90;999.90;;;13.80;99.90;;;;;;5069647;28;21187;-68
2022/10/11 05:55:42;;;;;;;1999.90;999.90;;;13.80;99.90;;;;;;5069663;28;20997;-69
2022/10/11 05:58:12;;;;;;;1999.90;999.90;;;13.80;99.90;;;;;;5069362;28;20478;-69
2022/10/11 06:00:39;;;;;;;1999.90;999.90;;;13.80;99.90;;;;;;5069578;28;20446;-69
2022/10/11 06:03:08;;;;;;;1999.90;999.90;;;13.80;99.90;;;;;;5069775;28;20443;-69
2022/10/11 06:05:35;;;;;;;1999.90;999.90;;;13.90;99.90;;;;;;5069340;28;20988;-69
2022/10/11 06:08:02;;;;;;;1999.90;999.90;;;13.90;99.90;;;;;;5069750;28;20443;-69
2022/10/11 06:10:29;;;;;;;1999.90;999.90;;;13.80;99.90;;;;;;5069092;28;20450;-69
2022/10/11 06:12:57;;;;;;;1999.90;999.90;;;13.90;99.90;;;;;;5069104;28;20446;-69
2022/10/11 06:15:24;;;;;;;1999.90;999.90;;;13.90;99.90;;;;;;5069292;28;21019;-69
2022/10/11 06:17:51;;;;;;;1999.90;999.90;;;13.90;99.90;;;;;;5069551;28;20485;-68
2022/10/11 06:20:18;;;;;;;1999.90;999.90;;;13.90;99.90;;;;;;5069390;28;20881;-69
2022/10/11 06:22:45;;;;;;;1999.90;999.90;;;13.90;99.90;;;;;;5068953;28;20447;-68
2022/10/11 06:25:12;;;;;;;1999.90;999.90;;;13.90;99.90;;;;;;5069125;28;20451;-69
2022/10/11 06:27:38;;;;;;;1999.90;999.90;;;13.90;99.90;;;;;;5069360;28;20933;-69
2022/10/11 06:30:08;;;;;;;1999.90;999.90;;;13.80;99.90;;;;;;5069509;28;20447;-69
2022/10/11 06:32:35;;;;;;;1999.90;999.90;;;13.80;99.90;;;;;;5069146;28;20443;-69
2022/10/11 06:35:04;;;;;;;1999.90;999.90;;;13.80;99.90;;;;;;5067244;28;20451;-69
2022/10/11 06:37:31;;;;;;;1999.90;999.90;;;13.80;99.90;;;;;;5057561;28;20521;-69
2022/10/11 06:39:57;;;;;;;1999.90;999.90;;;13.80;99.90;;;;;;5068301;28;20447;-69
2022/10/11 06:42:24;;;;;;;1999.90;999.90;;;13.80;99.90;;;;;;5068404;28;20453;-68
2022/10/11 06:44:51;;;;;;;1999.90;999.90;;;13.90;99.90;;;;;;5061207;28;20440;-69
2022/10/11 06:47:19;;;;;;;1999.90;999.90;;;13.90;99.90;;;;;;5067954;28;21296;-69
2022/10/11 06:49:46;;;;;;;1999.90;999.90;;;14.00;99.90;;;;;;5068711;28;20439;-69
2022/10/11 06:52:12;;;;;;;1999.90;999.90;;;14.00;99.90;;;;;;5068438;28;20450;-68
2022/10/11 06:54:39;;;;;;;1999.90;999.90;;;14.10;99.90;;;;;;5068401;28;20447;-69
2022/10/11 06:57:06;;;;;;;1999.90;999.90;;;14.20;99.90;;;;;;5068559;28;20458;-68
2022/10/11 06:59:33;;;;;;;1999.90;999.90;;;14.30;99.90;;;;;;5068227;28;20822;-68
2022/10/11 07:01:59;;;;;;;1999.90;999.90;;;14.30;99.90;;;;;;5068495;28;20486;-69
2022/10/11 07:04:28;;;;;;;1999.90;999.90;;;14.20;99.90;;;;;;5068238;28;20450;-69
2022/10/11 07:06:55;;;;;;;1999.90;999.90;;;14.10;99.90;;;;;;5067810;28;20486;-68
2022/10/11 07:09:22;;;;;;;1999.90;999.90;;;14.20;99.90;;;;;;5061446;28;20435;-70
2022/10/11 07:11:49;;;;;;;1999.90;999.90;;;14.10;99.90;;;;;;5067339;28;20435;-69
2022/10/11 07:14:16;;;;;;;1999.90;999.90;;;14.20;99.90;;;;;;5067831;28;20435;-68
2022/10/11 07:16:42;;;;;;;1999.90;999.90;;;14.20;99.90;;;;;;5067748;28;20478;-69
2022/10/11 07:19:10;;;;;;;1999.90;999.90;;;14.30;99.90;;;;;;5067860;28;20481;-68
2022/10/11 07:21:38;;;;;;;1999.90;999.90;;;14.30;99.90;;;;;;5067870;28;20443;-70
2022/10/11 07:24:06;;;;;;;1999.90;999.90;;;14.30;99.90;;;;;;5068069;28;20812;-69
2022/10/11 07:26:33;;;;;;;1999.90;999.90;;;14.50;99.90;;;;;;5071440;28;20485;-68
2022/10/11 07:29:00;;;;;;;1999.90;999.90;;;14.50;99.90;;;;;;5071627;28;20992;-67
2022/10/11 07:31:27;;;;;;;1999.90;999.90;;;14.60;99.90;;;;;;5086323;28;20453;-69
2022/10/11 07:33:53;;;;;;;1999.90;999.90;;;14.60;99.90;;;;;;5091545;28;20446;-69
2022/10/11 07:36:22;;;;;;;1999.90;999.90;;;14.70;99.90;;;;;;5077895;28;20482;-69
2022/10/11 07:38:50;;;;;;;1999.90;999.90;;;14.70;99.90;;;;;;5070432;28;20526;-68
2022/10/11 07:41:17;;;;;;;1999.90;999.90;;;14.70;99.90;;;;;;5071591;28;20451;-69
2022/10/11 07:43:46;;;;;;;1999.90;999.90;;;14.80;99.90;;;;;;5071195;28;20443;-67
2022/10/11 07:46:13;;;;;;;1999.90;999.90;;;14.70;99.90;;;;;;5071271;28;20479;-69
2022/10/11 07:48:41;;;;;;;1999.90;999.90;;;14.80;99.90;;;;;;5070984;28;20454;-69
2022/10/11 07:51:09;;;;;;;1999.90;999.90;;;14.80;99.90;;;;;;5071123;28;20455;-69
2022/10/11 07:53:40;;;;;;;1999.90;999.90;;;14.80;99.90;;;;;;5070814;28;20458;-70
2022/10/11 07:56:11;;;;;;;1999.90;999.90;;;14.80;99.90;;;;;;5070955;28;21091;-70
2022/10/11 07:58:38;;;;;;;1999.90;999.90;;;14.70;99.90;;;;;;5070967;28;21309;-69
2022/10/11 08:01:05;;;;;;;1999.90;999.90;;;14.70;99.90;;;;;;5070174;28;20979;-69
2022/10/11 08:03:32;;;;;;;1999.90;999.90;;;14.70;99.90;;;;;;5070781;28;20461;-68
2022/10/11 08:06:03;;;;;;;1999.90;999.90;;;14.70;99.90;;;;;;5070594;28;20988;-69
2022/10/11 08:08:30;;;;;;;1999.90;999.90;;;14.80;99.90;;;;;;5071120;28;20462;-69
2022/10/11 08:10:57;;;;;;;1999.90;999.90;;;14.70;99.90;;;;;;5070818;28;20534;-69
2022/10/11 08:13:25;;;;;;;1999.90;999.90;;;14.80;99.90;;;;;;5069969;28;20543;-69
2022/10/11 08:15:52;;;;;;;1999.90;999.90;;;14.70;99.90;;;;;;5067314;28;20509;-69
2022/10/11 08:18:19;;;;;;;1999.90;999.90;;;14.70;99.90;;;;;;5070307;28;20473;-68
2022/10/11 08:20:46;;;;;;;1999.90;999.90;;;14.80;99.90;;;;;;5070467;28;20443;-68
2022/10/11 08:23:13;;;;;;;1999.90;999.90;;;14.90;99.90;;;;;;5070646;28;21065;-68
2022/10/11 08:25:45;;;;;;;1999.90;999.90;;;14.90;99.90;;;;;;5070338;28;20467;-68
2022/10/11 08:28:16;;;;;;;1999.90;999.90;;;15.00;99.90;;;;;;5069600;28;20451;-68
2022/10/11 08:30:48;;;;;;;1999.90;999.90;;;15.00;99.90;;;;;;5065146;28;20448;-68
2022/10/11 08:33:16;;;;;;;1999.90;999.90;;;15.10;99.90;;;;;;5070115;28;20452;-69
2022/10/11 08:35:42;;;;;;;1999.90;999.90;;;15.10;99.90;;;;;;5069788;28;20473;-69
2022/10/11 08:38:09;;;;;;;1999.90;999.90;;;15.00;99.90;;;;;;5059984;28;20444;-69
2022/10/11 08:40:36;;;;;;;1999.90;999.90;;;14.90;99.90;;;;;;5061969;28;20454;-68
2022/10/11 08:43:06;;;;;;;1999.90;999.90;;;14.90;99.90;;;;;;5062908;28;20458;-68
2022/10/11 08:45:39;;;;;;;1999.90;999.90;;;14.90;99.90;;;;;;5061883;28;20864;-68
2022/10/11 08:48:14;;;;;;;1999.90;999.90;;;15.00;99.90;;;;;;5062694;28;20444;-68
2022/10/11 08:50:42;;;;;;;1999.90;999.90;;;15.00;99.90;;;;;;5062103;28;20439;-68
2022/10/11 08:53:19;;;;;;;1999.90;999.90;;;15.00;99.90;;;;;;5063168;28;20820;-69
2022/10/11 08:55:50;;;;;;;1999.90;999.90;;;14.90;99.90;;;;;;5062335;28;20490;-68
2022/10/11 08:58:19;;;;;;;1999.90;999.90;;;15.00;99.90;;;;;;5062718;28;20536;-69
2022/10/11 09:00:49;;;;;;;1999.90;999.90;;;15.00;99.90;;;;;;5059244;28;20943;-67
2022/10/11 09:03:28;;;;;;;1999.90;999.90;;;15.10;99.90;;;;;;5067472;28;20943;-68
2022/10/11 09:06:06;;;;;;;1999.90;999.90;;;15.20;99.90;;;;;;5069000;28;20493;-69
2022/10/11 09:08:44;;;;;;;1999.90;999.90;;;15.20;99.90;;;;;;5069945;28;20435;-69
2022/10/11 09:11:19;;;;;;;1999.90;999.90;;;15.20;99.90;;;;;;5069686;28;20443;-69
2022/10/11 09:14:01;;;;;;;1999.90;999.90;;;15.30;99.90;;;;;;5069741;28;20474;-69
2022/10/11 09:16:41;;;;;;;1999.90;999.90;;;15.30;99.90;;;;;;5069771;28;20467;-69
2022/10/11 09:19:35;;;;;;;1999.90;999.90;;;15.40;99.90;;;;;;5069771;28;20486;-68
2022/10/11 09:22:08;;;;;;;1999.90;999.90;;;15.60;99.90;;;;;;5069366;28;20812;-68
2022/10/11 09:24:47;;;;;;;1999.90;999.90;;;15.60;99.90;;;;;;5069606;28;20928;-69
2022/10/11 09:27:20;;;;;;;1999.90;999.90;;;15.60;99.90;;;;;;5069177;28;20493;-70
2022/10/11 09:29:57;;;;;;;1999.90;999.90;;;15.70;99.90;;;;;;5069319;28;20532;-70
2022/10/11 09:32:30;;;;;;;1999.90;999.90;;;15.80;99.90;;;;;;5068836;28;20443;-70
2022/10/11 09:35:08;;;;;;;1999.90;999.90;;;15.90;99.90;;;;;;5069031;28;20839;-70
2022/10/11 09:37:42;;;;;;;1999.90;999.90;;;16.00;99.90;;;;;;5069312;28;20443;-72
2022/10/11 09:40:25;;;;;;;1999.90;999.90;;;16.10;99.90;;;;;;5069151;28;20482;-70
2022/10/11 09:42:52;;;;;;;1999.90;999.90;;;16.40;99.90;;;;;;5069123;28;21041;-69
2022/10/11 09:45:21;;;;;;;1999.90;999.90;;;16.70;99.90;;;;;;5068876;28;20585;-70
2022/10/11 09:47:50;;;;;;;1999.90;999.90;;;16.70;99.90;;;;;;5068720;28;20447;-69
2022/10/11 09:50:22;;;;;;;1999.90;999.90;;;16.60;99.90;;;;;;5070018;28;20446;-69
2022/10/11 09:52:50;;;;;;;1999.90;999.90;;;16.50;99.90;;;;;;5049940;28;20467;-68
2022/10/11 09:55:36;;;;;;;1999.90;999.90;;;16.40;99.90;;;;;;5049354;28;20534;-69
2022/10/11 09:58:05;;;;;;;1999.90;999.90;;;16.30;99.90;;;;;;5065338;28;20504;-69
2022/10/11 10:00:33;;;;;;;1999.90;999.90;;;16.10;99.90;;;;;;5067216;28;20475;-69
2022/10/11 10:03:02;;;;;;;1999.90;999.90;;;16.00;99.90;;;;;;5069668;28;20478;-70
2022/10/11 10:05:31;;;;;;;1999.90;999.90;;;16.00;99.90;;;;;;5069835;28;20463;-69
2022/10/11 10:08:21;;;;;;;1999.90;999.90;;;15.90;99.90;;;;;;5069834;28;20455;-69
2022/10/11 10:10:58;;;;;;;1999.90;999.90;;;15.90;99.90;;;;;;5065544;28;20443;-69
2022/10/11 10:13:29;;;;;;;1999.90;999.90;;;16.10;99.90;;;;;;5063139;28;21153;-69
2022/10/11 10:15:58;;;;;;;1999.90;999.90;;;16.10;99.90;;;;;;5062002;28;21027;-69
2022/10/11 10:18:32;;;;;;;1999.90;999.90;;;16.20;99.90;;;;;;5062133;28;20808;-69
2022/10/11 10:21:01;;;;;;;1999.90;999.90;;;16.40;99.90;;;;;;5061928;28;20440;-68
2022/10/11 10:23:30;;;;;;;1999.90;999.90;;;16.50;99.90;;;;;;5061882;28;20443;-69
2022/10/11 10:26:12;;;;;;;1999.90;999.90;;;16.60;99.90;;;;;;5063029;28;20463;-71
2022/10/11 10:28:39;;;;;;;1999.90;999.90;;;16.70;99.90;;;;;;5062913;28;20474;-70
2022/10/11 10:31:22;;;;;;;1999.90;999.90;;;16.70;99.90;;;;;;5062591;28;20443;-69
2022/10/11 10:33:51;;;;;;;1999.90;999.90;;;16.70;99.90;;;;;;5060055;28;20450;-70
2022/10/11 10:36:24;;;;;;;1999.90;999.90;;;16.60;99.90;;;;;;5062459;28;20479;-70
2022/10/11 10:38:58;;;;;;;1999.90;999.90;;;16.60;99.90;;;;;;5062620;28;20524;-70
2022/10/11 10:41:25;;;;;;;1999.90;999.90;;;16.70;99.90;;;;;;5063162;28;20439;-70
2022/10/11 10:43:55;;;;;;;1999.90;999.90;;;16.90;99.90;;;;;;5062867;28;20440;-70
2022/10/11 10:46:37;;;;;;;1999.90;999.90;;;17.10;99.90;;;;;;5060154;28;20467;-70
2022/10/11 10:49:12;;;;;;;1999.90;999.90;;;17.10;99.90;;;;;;5062426;28;20450;-69
2022/10/11 10:51:49;;;;;;;1999.90;999.90;;;17.10;99.90;;;;;;5061641;28;20442;-70
2022/10/11 10:54:29;;;;;;;1999.90;999.90;;;17.10;99.90;;;;;;5061791;28;20537;-69
2022/10/11 10:56:59;;;;;;;1999.90;999.90;;;17.20;99.90;;;;;;5060805;28;20462;-69
2022/10/11 10:59:52;;;;;;;1999.90;999.90;;;17.30;99.90;;;;;;5063350;28;20474;-70
2022/10/11 11:02:23;;;;;;;1999.90;999.90;;;17.60;99.90;;;;;;5046593;28;20554;-70
2022/10/11 11:04:59;;;;;;;1999.90;999.90;;;17.80;99.90;;;;;;5066286;28;20436;-70
2022/10/11 11:07:36;;;;;;;1999.90;999.90;;;17.90;99.90;;;;;;5064886;28;20438;-69
2022/10/11 11:10:06;;;;;;;1999.90;999.90;;;17.90;99.90;;;;;;5065278;28;20443;-70
2022/10/11 11:12:43;;;;;;;1999.90;999.90;;;18.00;99.90;;;;;;5064212;28;20458;-69
2022/10/11 11:15:13;;;;;;;1999.90;999.90;;;18.10;99.90;;;;;;5066050;28;20479;-70
2022/10/11 11:17:53;;;;;;;1999.90;999.90;;;18.20;99.90;;;;;;5066271;28;20466;-69
2022/10/11 11:20:33;;;;;;;1999.90;999.90;;;18.30;99.90;;;;;;5065591;28;20485;-69
2022/10/11 11:23:09;;;;;;;1999.90;999.90;;;18.40;99.90;;;;;;5065411;28;20439;-68
2022/10/11 11:25:43;;;;;;;1999.90;999.90;;;18.60;99.90;;;;;;5065610;28;20454;-68
2022/10/11 11:28:31;;;;;;;1999.90;999.90;;;18.60;99.90;;;;;;5066113;28;20522;-70
2022/10/11 11:31:06;;;;;;;1999.90;999.90;;;18.90;99.90;;;;;;5066221;28;20908;-69
2022/10/11 11:33:45;;;;;;;1999.90;999.90;;;18.90;99.90;;;;;;5064067;28;22266;-70
2022/10/11 11:36:17;;;;;;;1999.90;999.90;;;18.60;99.90;;;;;;5066527;28;20855;-69
2022/10/11 11:38:51;;;;;;;1999.90;999.90;;;18.30;99.90;;;;;;5064940;28;20427;-68
2022/10/11 11:41:23;;;;;;;1999.90;999.90;;;18.30;99.90;;;;;;5063337;28;20513;-69
2022/10/11 11:43:58;;;;;;;1999.90;999.90;;;18.50;99.90;;;;;;5064440;28;21117;-68
2022/10/11 11:46:28;;;;;;;1999.90;999.90;;;18.40;99.90;;;;;;5064971;28;20462;-70
2022/10/11 11:48:59;;;;;;;1999.90;999.90;;;18.50;99.90;;;;;;5065060;28;20807;-69
2022/10/11 11:51:31;;;;;;;1999.90;999.90;;;18.40;99.90;;;;;;5065396;28;20442;-70
2022/10/11 11:54:08;;;;;;;1999.90;999.90;;;18.30;99.90;;;;;;5064506;28;20959;-70
2022/10/11 11:56:47;;;;;;;1999.90;999.90;;;18.40;99.90;;;;;;5062054;28;20477;-71
2022/10/11 11:59:17;;;;;;;1999.90;999.90;;;18.30;99.90;;;;;;5061730;28;20444;-69
2022/10/11 12:01:52;;;;;;;1999.90;999.90;;;18.10;99.90;;;;;;5062252;28;21083;-69
2022/10/11 12:04:22;;;;;;;1999.90;999.90;;;18.10;99.90;;;;;;5063022;28;20458;-70
2022/10/11 12:07:02;;;;;;;1999.90;999.90;;;18.00;99.90;;;;;;5062863;28;21016;-69
2022/10/11 12:09:30;;;;;;;1999.90;999.90;;;17.90;99.90;;;;;;5062444;28;20454;-69
2022/10/11 12:12:00;;;;;;;1999.90;999.90;;;17.90;99.90;;;;;;5063922;28;20456;-70
2022/10/11 12:14:36;;;;;;;1999.90;999.90;;;17.90;99.90;;;;;;5064380;28;20447;-70